Time;durP1;ratioP1;P1;durP2;ratioP2;P2;SDS_P1;SDS_P2;PMS_P1;PMS_P2;Temp;Humidity;BMP_temperature;BMP_pressure;BME280_temperature;BME280_humidity;BME280_pressure;Samples;Min_cycle;Max_cycle;Signal;HPM_P1;HPM_P2
2021/09/29 00:00:37;;;;;;;12.73;5.62;;;;;;;;;;363901;144;856059;-60
2021/09/29 00:01:38;;;;;;;15.84;4.86;;;;;;;;;;363058;146;856758;-60
2021/09/29 00:02:40;;;;;;;10.53;4.91;;;;;;;;;;363747;146;858717;-60
2021/09/29 00:03:41;;;;;;;9.99;5.36;;;;;;;;;;364384;144;856159;-60
2021/09/29 00:04:43;;;;;;;10.11;5.09;;;;;;;;;;362973;146;856644;-60
2021/09/29 00:05:44;;;;;;;11.24;5.42;;;;;;;;;;364820;146;856230;-60
2021/09/29 00:06:46;;;;;;;14.99;5.21;;;;;;;;;;362129;147;856164;-60
2021/09/29 00:07:48;;;;;;;14.21;5.21;;;;;;;;;;361855;144;864482;-60
2021/09/29 00:08:49;;;;;;;13.22;4.86;;;;;;;;;;363579;146;857352;-60
2021/09/29 00:09:51;;;;;;;11.61;5.06;;;;;;;;;;363582;144;856646;-60
2021/09/29 00:10:53;;;;;;;8.27;4.78;;;;;;;;;;360304;146;856532;-60
2021/09/29 00:11:55;;;;;;;10.17;5.10;;;;;;;;;;359615;146;856472;-60
2021/09/29 00:12:56;;;;;;;11.13;4.98;;;;;;;;;;362028;146;856759;-60
2021/09/29 00:13:58;;;;;;;16.49;4.99;;;;;;;;;;359980;146;856125;-60
2021/09/29 00:15:04;;;;;;;10.84;4.98;;;;;;;;;;357371;146;856040;-60
2021/09/29 00:16:05;;;;;;;10.07;5.27;;;;;;;;;;361080;146;856604;-60
2021/09/29 00:17:07;;;;;;;10.98;4.98;;;;;;;;;;361697;146;856253;-60
2021/09/29 00:18:08;;;;;;;8.36;5.50;;;;;;;;;;359455;148;863772;-61
2021/09/29 00:19:10;;;;;;;12.40;5.62;;;;;;;;;;360923;146;856985;-60
2021/09/29 00:20:12;;;;;;;9.21;4.74;;;;;;;;;;361570;146;856218;-60
2021/09/29 00:21:14;;;;;;;16.43;5.73;;;;;;;;;;359796;148;856006;-60
2021/09/29 00:22:16;;;;;;;8.42;5.24;;;;;;;;;;358864;147;856040;-60
2021/09/29 00:23:17;;;;;;;11.76;4.71;;;;;;;;;;361191;146;864076;-60
2021/09/29 00:24:19;;;;;;;13.54;5.21;;;;;;;;;;360335;148;856774;-60
2021/09/29 00:25:21;;;;;;;10.08;4.79;;;;;;;;;;360486;148;864013;-60
2021/09/29 00:26:23;;;;;;;11.55;5.22;;;;;;;;;;361568;148;856504;-60
2021/09/29 00:27:24;;;;;;;12.78;5.05;;;;;;;;;;361750;146;856629;-60
2021/09/29 00:28:26;;;;;;;8.49;4.87;;;;;;;;;;360179;146;856474;-60
2021/09/29 00:29:27;;;;;;;11.07;5.01;;;;;;;;;;362394;146;856294;-60
2021/09/29 00:30:35;;;;;;;9.75;4.82;;;;;;;;;;360484;146;857065;-60
2021/09/29 00:31:36;;;;;;;9.08;4.72;;;;;;;;;;359350;147;856403;-60
2021/09/29 00:32:40;;;;;;;12.52;5.39;;;;;;;;;;357329;146;863646;-61
2021/09/29 00:33:46;;;;;;;10.07;5.74;;;;;;;;;;357566;146;856751;-60
2021/09/29 00:34:45;;;;;;;11.83;5.19;;;;;;;;;;359218;146;863925;-60
2021/09/29 00:35:47;;;;;;;11.99;5.34;;;;;;;;;;360063;146;856095;-60
2021/09/29 00:36:51;;;;;;;11.30;5.14;;;;;;;;;;358737;146;864558;-60
2021/09/29 00:37:53;;;;;;;13.98;5.54;;;;;;;;;;359622;146;856230;-60
2021/09/29 00:38:54;;;;;;;13.34;5.38;;;;;;;;;;360481;146;856098;-60
2021/09/29 00:39:56;;;;;;;10.85;5.46;;;;;;;;;;354972;146;864442;-60
2021/09/29 00:40:59;;;;;;;10.07;5.04;;;;;;;;;;357867;148;856210;-60
2021/09/29 00:42:00;;;;;;;11.43;5.46;;;;;;;;;;359785;146;856084;-60
2021/09/29 00:43:02;;;;;;;9.00;5.36;;;;;;;;;;359892;146;858687;-60
2021/09/29 00:44:03;;;;;;;10.36;5.39;;;;;;;;;;360067;146;856806;-60
2021/09/29 00:45:05;;;;;;;9.25;4.91;;;;;;;;;;362206;146;856125;-60
2021/09/29 00:46:07;;;;;;;16.99;5.79;;;;;;;;;;360323;146;863901;-60
2021/09/29 00:47:09;;;;;;;14.09;5.36;;;;;;;;;;357261;148;856184;-60
2021/09/29 00:48:11;;;;;;;10.07;4.69;;;;;;;;;;360181;146;863738;-60
2021/09/29 00:49:12;;;;;;;11.56;4.75;;;;;;;;;;358994;146;863916;-60
2021/09/29 00:50:14;;;;;;;11.74;5.08;;;;;;;;;;359851;148;856075;-60
2021/09/29 00:51:15;;;;;;;13.28;5.58;;;;;;;;;;359842;146;856071;-60
2021/09/29 00:52:17;;;;;;;10.07;5.12;;;;;;;;;;360094;146;863993;-60
2021/09/29 00:53:18;;;;;;;10.69;4.89;;;;;;;;;;359640;146;856158;-60
2021/09/29 00:54:20;;;;;;;11.84;5.64;;;;;;;;;;360103;148;856860;-60
2021/09/29 00:55:22;;;;;;;10.76;4.95;;;;;;;;;;361599;148;856557;-60
2021/09/29 00:56:23;;;;;;;12.51;4.93;;;;;;;;;;354325;149;856643;-60
2021/09/29 00:57:25;;;;;;;11.83;4.94;;;;;;;;;;352998;149;856577;-60
2021/09/29 00:58:27;;;;;;;11.42;5.20;;;;;;;;;;360514;146;856563;-60
2021/09/29 00:59:28;;;;;;;12.99;5.38;;;;;;;;;;348064;151;856303;-60
2021/09/29 01:00:30;;;;;;;10.81;4.78;;;;;;;;;;348076;151;859686;-60
2021/09/29 01:01:32;;;;;;;9.69;4.90;;;;;;;;;;352041;150;856561;-60
2021/09/29 01:02:33;;;;;;;12.46;4.69;;;;;;;;;;345191;151;864300;-60
2021/09/29 01:03:35;;;;;;;9.90;4.69;;;;;;;;;;353915;149;863802;-60
2021/09/29 01:04:36;;;;;;;12.95;6.16;;;;;;;;;;348929;152;856348;-60
2021/09/29 01:05:38;;;;;;;13.68;4.78;;;;;;;;;;349521;152;856516;-60
2021/09/29 01:06:41;;;;;;;11.27;5.13;;;;;;;;;;350457;150;856415;-60
2021/09/29 01:07:45;;;;;;;8.83;4.67;;;;;;;;;;349833;152;856439;-60
2021/09/29 01:08:51;;;;;;;10.83;4.88;;;;;;;;;;348119;153;856796;-60
2021/09/29 01:10:03;;;;;;;8.89;4.42;;;;;;;;;;349276;150;856245;-60
2021/09/29 01:11:06;;;;;;;8.05;4.88;;;;;;;;;;347713;151;856489;-60
2021/09/29 01:12:10;;;;;;;10.72;4.58;;;;;;;;;;348661;153;856723;-60
2021/09/29 01:13:32;;;;;;;11.62;5.22;;;;;;;;;;349768;153;856142;-60
2021/09/29 01:14:35;;;;;;;9.14;4.65;;;;;;;;;;349947;152;856106;-60
2021/09/29 01:15:47;;;;;;;8.39;4.66;;;;;;;;;;349512;152;856569;-60
2021/09/29 01:16:50;;;;;;;7.84;4.39;;;;;;;;;;347796;151;856659;-60
2021/09/29 01:17:52;;;;;;;9.57;4.81;;;;;;;;;;349710;152;856827;-60
2021/09/29 01:18:57;;;;;;;9.78;4.67;;;;;;;;;;347895;152;856087;-60
2021/09/29 01:20:07;;;;;;;10.56;4.89;;;;;;;;;;348830;153;855990;-60
2021/09/29 01:21:10;;;;;;;8.31;4.65;;;;;;;;;;348582;152;856231;-60
2021/09/29 01:22:19;;;;;;;11.89;5.46;;;;;;;;;;349232;152;856273;-60
2021/09/29 01:23:23;;;;;;;10.74;5.56;;;;;;;;;;350399;153;856794;-60
2021/09/29 01:24:26;;;;;;;8.98;4.51;;;;;;;;;;349821;150;856195;-60
2021/09/29 01:25:39;;;;;;;10.09;4.69;;;;;;;;;;348197;152;856260;-60
2021/09/29 01:26:41;;;;;;;13.02;5.03;;;;;;;;;;349731;152;856096;-61
2021/09/29 01:27:43;;;;;;;15.66;4.84;;;;;;;;;;340709;156;856281;-60
2021/09/29 01:28:46;;;;;;;14.68;5.28;;;;;;;;;;353982;148;863936;-60
2021/09/29 01:29:48;;;;;;;13.88;5.54;;;;;;;;;;359836;146;856194;-60
2021/09/29 01:30:50;;;;;;;14.67;5.67;;;;;;;;;;364554;146;856281;-60
2021/09/29 01:31:52;;;;;;;10.46;5.49;;;;;;;;;;361115;146;863930;-60
2021/09/29 01:32:54;;;;;;;12.97;5.44;;;;;;;;;;360243;146;856197;-61
2021/09/29 01:33:56;;;;;;;15.05;5.80;;;;;;;;;;352892;149;863800;-60
2021/09/29 01:34:57;;;;;;;19.81;6.29;;;;;;;;;;350626;149;856080;-60
2021/09/29 01:35:59;;;;;;;15.94;5.94;;;;;;;;;;359363;146;856301;-60
2021/09/29 01:37:04;;;;;;;14.31;5.92;;;;;;;;;;360420;146;863749;-60
2021/09/29 01:38:04;;;;;;;13.33;5.47;;;;;;;;;;359800;148;863851;-60
2021/09/29 01:39:10;;;;;;;11.66;5.85;;;;;;;;;;359549;146;863971;-60
2021/09/29 01:40:12;;;;;;;13.03;5.69;;;;;;;;;;359537;146;856591;-60
2021/09/29 01:41:14;;;;;;;14.29;6.14;;;;;;;;;;359597;146;856269;-60
2021/09/29 01:42:15;;;;;;;12.80;6.31;;;;;;;;;;360415;146;864395;-60
2021/09/29 01:43:17;;;;;;;12.21;6.16;;;;;;;;;;361304;146;856503;-60
2021/09/29 01:44:19;;;;;;;14.26;7.49;;;;;;;;;;362082;146;856478;-60
2021/09/29 01:45:20;;;;;;;21.51;7.30;;;;;;;;;;360911;148;856511;-61
2021/09/29 01:46:26;;;;;;;14.15;7.09;;;;;;;;;;359987;146;856587;-60
2021/09/29 01:47:28;;;;;;;18.18;7.66;;;;;;;;;;360304;146;856312;-60
2021/09/29 01:48:29;;;;;;;12.39;7.15;;;;;;;;;;361785;147;856270;-60
2021/09/29 01:49:33;;;;;;;14.53;7.14;;;;;;;;;;359558;146;863817;-60
2021/09/29 01:50:35;;;;;;;14.16;7.23;;;;;;;;;;360143;146;856553;-60
2021/09/29 01:51:37;;;;;;;12.44;7.11;;;;;;;;;;360040;146;864378;-60
2021/09/29 01:52:41;;;;;;;14.05;7.27;;;;;;;;;;359297;146;864234;-60
2021/09/29 01:53:42;;;;;;;14.45;7.14;;;;;;;;;;356154;148;856766;-60
2021/09/29 01:54:47;;;;;;;13.11;7.46;;;;;;;;;;360519;146;856142;-60
2021/09/29 01:55:49;;;;;;;15.95;7.65;;;;;;;;;;360051;146;856407;-60
2021/09/29 01:56:51;;;;;;;15.67;7.53;;;;;;;;;;358875;146;856037;-60
2021/09/29 01:57:53;;;;;;;17.89;7.00;;;;;;;;;;362038;146;856592;-61
2021/09/29 01:58:54;;;;;;;18.55;8.41;;;;;;;;;;358657;146;856883;-60
2021/09/29 01:59:56;;;;;;;14.44;8.01;;;;;;;;;;359230;146;856665;-60
2021/09/29 02:00:58;;;;;;;12.98;7.45;;;;;;;;;;358730;148;864404;-60
2021/09/29 02:01:59;;;;;;;15.94;7.19;;;;;;;;;;359900;146;863869;-60
2021/09/29 02:03:01;;;;;;;13.90;6.84;;;;;;;;;;359320;148;863817;-60
2021/09/29 02:04:03;;;;;;;15.51;8.21;;;;;;;;;;357127;146;856433;-60
2021/09/29 02:05:05;;;;;;;18.85;7.18;;;;;;;;;;361132;146;856070;-60
2021/09/29 02:06:08;;;;;;;14.43;7.55;;;;;;;;;;360738;146;856807;-60
2021/09/29 02:07:10;;;;;;;11.49;6.95;;;;;;;;;;358969;146;863953;-60
2021/09/29 02:08:11;;;;;;;12.55;7.05;;;;;;;;;;359785;146;856177;-60
2021/09/29 02:09:13;;;;;;;9.51;6.59;;;;;;;;;;362127;146;863677;-60
2021/09/29 02:10:16;;;;;;;13.47;6.84;;;;;;;;;;359559;147;856604;-60
2021/09/29 02:11:18;;;;;;;10.64;7.19;;;;;;;;;;363246;146;856044;-60
2021/09/29 02:12:19;;;;;;;10.61;6.81;;;;;;;;;;363883;146;864549;-60
2021/09/29 02:13:21;;;;;;;13.50;6.26;;;;;;;;;;363731;146;856185;-60
2021/09/29 02:14:23;;;;;;;11.02;6.84;;;;;;;;;;363165;147;858085;-60
2021/09/29 02:15:24;;;;;;;11.69;6.34;;;;;;;;;;362712;144;857043;-60
2021/09/29 02:16:27;;;;;;;9.32;5.93;;;;;;;;;;364815;146;864585;-60
2021/09/29 02:17:29;;;;;;;10.04;6.11;;;;;;;;;;362926;144;863983;-60
2021/09/29 02:18:30;;;;;;;8.59;6.10;;;;;;;;;;365429;147;856363;-60
2021/09/29 02:19:32;;;;;;;9.61;6.14;;;;;;;;;;365076;146;856240;-60
2021/09/29 02:20:35;;;;;;;8.53;6.25;;;;;;;;;;364298;146;856831;-60
2021/09/29 02:21:40;;;;;;;8.67;6.49;;;;;;;;;;362181;147;863888;-60
2021/09/29 02:22:41;;;;;;;11.21;6.06;;;;;;;;;;360769;144;863797;-60
2021/09/29 02:23:43;;;;;;;9.47;6.03;;;;;;;;;;364802;146;856543;-60
2021/09/29 02:24:45;;;;;;;12.60;6.07;;;;;;;;;;364619;146;864027;-60
2021/09/29 02:25:47;;;;;;;8.69;5.96;;;;;;;;;;364514;146;856297;-60
2021/09/29 02:26:48;;;;;;;9.57;5.87;;;;;;;;;;364958;144;856694;-60
2021/09/29 02:27:50;;;;;;;8.44;5.86;;;;;;;;;;364436;145;856194;-60
2021/09/29 02:28:51;;;;;;;8.28;5.83;;;;;;;;;;365188;144;856121;-60
2021/09/29 02:29:53;;;;;;;12.28;6.02;;;;;;;;;;364401;146;856560;-60
2021/09/29 02:30:56;;;;;;;9.98;5.86;;;;;;;;;;365289;146;855980;-60
2021/09/29 02:31:58;;;;;;;12.15;6.26;;;;;;;;;;364632;144;856283;-60
2021/09/29 02:33:00;;;;;;;10.23;6.35;;;;;;;;;;362096;147;863997;-60
2021/09/29 02:34:02;;;;;;;10.09;5.44;;;;;;;;;;364251;144;856767;-60
2021/09/29 02:35:04;;;;;;;9.53;5.88;;;;;;;;;;364557;144;858340;-60
2021/09/29 02:36:06;;;;;;;10.57;6.29;;;;;;;;;;364652;144;864081;-60
2021/09/29 02:37:08;;;;;;;8.00;5.54;;;;;;;;;;363963;146;864419;-60
2021/09/29 02:38:09;;;;;;;9.91;5.98;;;;;;;;;;364884;144;863760;-61
2021/09/29 02:39:11;;;;;;;11.55;6.65;;;;;;;;;;364193;146;856022;-60
2021/09/29 02:40:15;;;;;;;8.31;6.03;;;;;;;;;;360997;147;856032;-60
2021/09/29 02:41:17;;;;;;;10.44;6.03;;;;;;;;;;363773;144;856722;-60
2021/09/29 02:42:19;;;;;;;10.29;6.36;;;;;;;;;;363993;146;856323;-60
2021/09/29 02:43:21;;;;;;;9.55;6.70;;;;;;;;;;361585;144;856323;-60
2021/09/29 02:44:22;;;;;;;8.34;6.23;;;;;;;;;;364305;144;856365;-60
2021/09/29 02:45:24;;;;;;;8.41;6.29;;;;;;;;;;365248;144;856265;-60
2021/09/29 02:46:27;;;;;;;12.29;6.25;;;;;;;;;;362906;147;856738;-60
2021/09/29 02:47:29;;;;;;;13.56;6.57;;;;;;;;;;364079;144;857234;-60
2021/09/29 02:48:31;;;;;;;8.55;6.49;;;;;;;;;;363789;146;863738;-60
2021/09/29 02:49:32;;;;;;;8.71;6.69;;;;;;;;;;364866;146;856663;-60
2021/09/29 02:50:35;;;;;;;10.89;5.83;;;;;;;;;;365047;144;863769;-60
2021/09/29 02:51:36;;;;;;;8.21;5.91;;;;;;;;;;363801;144;856717;-60
2021/09/29 02:52:38;;;;;;;8.56;5.59;;;;;;;;;;362887;144;858702;-60
2021/09/29 02:53:39;;;;;;;10.80;5.96;;;;;;;;;;363202;146;856492;-59
2021/09/29 02:54:41;;;;;;;9.08;5.89;;;;;;;;;;365117;144;856183;-60
2021/09/29 02:55:43;;;;;;;8.79;5.07;;;;;;;;;;365101;145;856180;-60
2021/09/29 02:56:45;;;;;;;6.92;4.26;;;;;;;;;;364184;144;856394;-60
2021/09/29 02:57:46;;;;;;;6.34;4.18;;;;;;;;;;362484;146;856791;-59
2021/09/29 02:58:48;;;;;;;7.88;3.79;;;;;;;;;;364296;144;856305;-58
2021/09/29 02:59:49;;;;;;;6.34;4.14;;;;;;;;;;363557;144;863709;-60
2021/09/29 03:00:53;;;;;;;5.76;3.93;;;;;;;;;;362792;144;856377;-59
2021/09/29 03:01:55;;;;;;;4.14;3.29;;;;;;;;;;363032;144;856341;-58
2021/09/29 03:02:56;;;;;;;5.57;3.41;;;;;;;;;;363782;145;856172;-58
2021/09/29 03:03:58;;;;;;;4.77;3.26;;;;;;;;;;364967;146;856072;-59
2021/09/29 03:04:59;;;;;;;3.26;2.36;;;;;;;;;;365510;146;863545;-59
2021/09/29 03:06:01;;;;;;;2.63;1.99;;;;;;;;;;363190;144;863493;-58
2021/09/29 03:07:03;;;;;;;3.39;2.65;;;;;;;;;;356482;149;863398;-58
2021/09/29 03:08:05;;;;;;;3.94;2.01;;;;;;;;;;357422;147;856896;-59
2021/09/29 03:09:06;;;;;;;4.36;2.85;;;;;;;;;;364374;146;863655;-59
2021/09/29 03:10:08;;;;;;;5.05;3.11;;;;;;;;;;363627;144;864335;-59
2021/09/29 03:11:10;;;;;;;2.90;2.29;;;;;;;;;;364180;144;856410;-60
2021/09/29 03:12:12;;;;;;;4.69;2.58;;;;;;;;;;364419;147;863983;-61
2021/09/29 03:13:13;;;;;;;3.31;2.42;;;;;;;;;;362478;144;856017;-61
2021/09/29 03:14:15;;;;;;;4.25;2.63;;;;;;;;;;364409;146;863719;-60
2021/09/29 03:15:17;;;;;;;4.07;2.65;;;;;;;;;;364474;144;856247;-60
2021/09/29 03:16:19;;;;;;;4.89;2.88;;;;;;;;;;363759;147;856583;-59
2021/09/29 03:17:21;;;;;;;2.59;2.28;;;;;;;;;;362697;146;864980;-60
2021/09/29 03:18:23;;;;;;;3.25;2.41;;;;;;;;;;363548;144;864423;-61
2021/09/29 03:19:24;;;;;;;2.62;1.98;;;;;;;;;;364496;147;864919;-59
2021/09/29 03:20:26;;;;;;;6.25;3.23;;;;;;;;;;363704;144;856290;-59
2021/09/29 03:21:28;;;;;;;2.69;2.34;;;;;;;;;;362867;146;856198;-59
2021/09/29 03:22:32;;;;;;;2.21;1.90;;;;;;;;;;364874;146;864463;-60
2021/09/29 03:23:33;;;;;;;3.81;2.88;;;;;;;;;;365581;146;863970;-60
2021/09/29 03:24:34;;;;;;;3.50;3.20;;;;;;;;;;363891;144;856439;-58
2021/09/29 03:25:36;;;;;;;5.70;3.65;;;;;;;;;;363554;146;863682;-58
2021/09/29 03:26:39;;;;;;;6.18;4.08;;;;;;;;;;363541;144;856062;-60
2021/09/29 03:27:40;;;;;;;7.51;4.86;;;;;;;;;;364527;146;856046;-59
2021/09/29 03:28:42;;;;;;;5.96;2.97;;;;;;;;;;363445;146;856701;-60
2021/09/29 03:29:44;;;;;;;7.48;4.19;;;;;;;;;;365166;146;863789;-59
2021/09/29 03:30:45;;;;;;;6.25;4.19;;;;;;;;;;364733;146;856600;-59
2021/09/29 03:31:47;;;;;;;4.83;4.00;;;;;;;;;;363325;146;856526;-59
2021/09/29 03:32:49;;;;;;;5.26;3.38;;;;;;;;;;363370;146;856683;-59
2021/09/29 03:33:50;;;;;;;4.55;2.69;;;;;;;;;;363448;144;863592;-59
2021/09/29 03:34:52;;;;;;;6.66;3.83;;;;;;;;;;363924;144;863662;-59
2021/09/29 03:35:53;;;;;;;4.68;2.90;;;;;;;;;;362957;144;856101;-59
2021/09/29 03:36:56;;;;;;;2.91;2.63;;;;;;;;;;362760;144;863577;-56
2021/09/29 03:37:58;;;;;;;7.87;4.14;;;;;;;;;;361366;146;863535;-57
2021/09/29 03:39:00;;;;;;;8.67;4.94;;;;;;;;;;362172;144;864376;-58
2021/09/29 03:40:03;;;;;;;5.52;4.22;;;;;;;;;;364669;144;856232;-59
2021/09/29 03:41:04;;;;;;;5.96;3.87;;;;;;;;;;349314;152;856048;-58
2021/09/29 03:42:06;;;;;;;10.59;5.83;;;;;;;;;;362819;146;856522;-58
2021/09/29 03:43:07;;;;;;;5.18;3.96;;;;;;;;;;364527;144;856301;-58
2021/09/29 03:44:09;;;;;;;5.11;3.91;;;;;;;;;;364607;146;863743;-58
2021/09/29 03:45:11;;;;;;;4.16;3.54;;;;;;;;;;364008;144;863633;-59
2021/09/29 03:46:13;;;;;;;6.27;3.69;;;;;;;;;;363337;144;856204;-59
2021/09/29 03:47:15;;;;;;;6.24;3.96;;;;;;;;;;363255;144;856737;-59
2021/09/29 03:48:16;;;;;;;6.33;3.98;;;;;;;;;;362152;144;856099;-58
2021/09/29 03:49:18;;;;;;;7.37;4.67;;;;;;;;;;361721;144;864415;-58
2021/09/29 03:50:20;;;;;;;6.06;4.21;;;;;;;;;;363676;146;858499;-58
2021/09/29 03:51:21;;;;;;;5.86;4.55;;;;;;;;;;363895;146;863920;-59
2021/09/29 03:52:23;;;;;;;7.02;5.30;;;;;;;;;;361514;146;856311;-58
2021/09/29 03:53:25;;;;;;;7.58;3.88;;;;;;;;;;364332;144;863974;-58
2021/09/29 03:54:26;;;;;;;7.18;4.25;;;;;;;;;;362793;144;864368;-58
2021/09/29 03:55:28;;;;;;;5.99;4.52;;;;;;;;;;363244;144;863835;-59
2021/09/29 03:56:30;;;;;;;9.79;4.92;;;;;;;;;;362132;144;863717;-61
2021/09/29 03:57:32;;;;;;;4.66;3.96;;;;;;;;;;363004;144;856391;-59
2021/09/29 03:58:33;;;;;;;7.08;3.81;;;;;;;;;;363898;146;857869;-60
2021/09/29 03:59:35;;;;;;;6.74;4.54;;;;;;;;;;363822;146;863553;-60
2021/09/29 04:04:56;;;;;;;7.37;4.03;;;;;;;8.67;71.92;101322.70;370237;142;869522;-59
2021/09/29 04:05:57;;;;;;;7.95;4.09;;;;;;;8.56;71.90;101323.34;363959;145;857714;-59
2021/09/29 04:07:00;;;;;;;7.54;3.22;;;;;;;8.56;71.85;101330.20;361899;147;860322;-59
2021/09/29 04:08:02;;;;;;;8.93;3.08;;;;;;;8.58;71.86;101331.99;360942;147;858899;-59
2021/09/29 04:09:03;;;;;;;5.53;2.68;;;;;;;8.62;71.96;101330.34;363780;146;859081;-59
2021/09/29 04:10:07;;;;;;;5.17;2.71;;;;;;;8.67;71.96;101331.31;363437;147;865420;-59
2021/09/29 04:11:10;;;;;;;5.08;3.19;;;;;;;8.74;71.97;101324.59;363029;144;856689;-58
2021/09/29 04:12:13;;;;;;;5.12;2.59;;;;;;;8.82;71.78;101332.48;362877;147;856379;-59
2021/09/29 04:13:15;;;;;;;3.61;2.42;;;;;;;8.92;71.66;101326.67;363134;146;856752;-59
2021/09/29 04:14:18;;;;;;;4.98;2.75;;;;;;;9.01;71.58;101332.06;361255;147;856234;-59
2021/09/29 04:15:20;;;;;;;6.04;2.74;;;;;;;9.10;71.46;101331.36;362055;146;863612;-60
2021/09/29 04:16:23;;;;;;;6.22;3.24;;;;;;;9.18;71.19;101329.80;363978;146;856243;-59
2021/09/29 04:17:25;;;;;;;6.47;3.07;;;;;;;9.28;70.90;101335.16;364271;147;856420;-59
2021/09/29 04:18:26;;;;;;;7.60;2.87;;;;;;;9.34;70.60;101336.16;362046;147;856303;-58
2021/09/29 04:19:28;;;;;;;4.69;2.62;;;;;;;9.43;70.40;101334.59;363009;144;863730;-58
2021/09/29 04:20:30;;;;;;;6.72;3.50;;;;;;;9.52;70.23;101336.47;363519;146;863753;-58
2021/09/29 04:21:32;;;;;;;5.49;2.85;;;;;;;9.57;69.94;101340.04;365152;147;855996;-59
2021/09/29 04:22:33;;;;;;;9.88;4.32;;;;;;;9.63;69.72;101338.42;364077;147;863753;-59
2021/09/29 04:23:38;;;;;;;8.61;3.11;;;;;;;9.69;69.46;101339.38;357498;147;863734;-59
2021/09/29 04:24:41;;;;;;;7.14;3.28;;;;;;;9.73;69.30;101342.06;360466;147;863494;-59
2021/09/29 04:25:42;;;;;;;5.38;3.90;;;;;;;9.74;69.16;101343.80;357894;147;856401;-57
2021/09/29 04:26:46;;;;;;;6.54;3.58;;;;;;;9.73;68.97;101347.23;358453;147;856163;-57
2021/09/29 04:27:48;;;;;;;7.96;3.75;;;;;;;9.71;68.70;101341.16;356554;147;863860;-58
2021/09/29 04:28:49;;;;;;;12.84;4.46;;;;;;;9.66;68.52;101347.97;357559;147;863829;-56
2021/09/29 04:29:51;;;;;;;7.98;4.21;;;;;;;9.62;68.52;101344.44;356766;147;863910;-58
2021/09/29 04:30:53;;;;;;;10.11;4.51;;;;;;;9.58;68.52;101350.39;356681;147;863591;-58
2021/09/29 04:31:55;;;;;;;8.07;3.88;;;;;;;9.54;68.41;101342.53;358106;147;856435;-57
2021/09/29 04:32:59;;;;;;;5.41;3.56;;;;;;;9.48;68.46;101351.06;357379;147;864031;-58
2021/09/29 04:34:00;;;;;;;7.59;4.34;;;;;;;9.43;68.54;101350.96;356888;147;863709;-57
2021/09/29 04:35:02;;;;;;;6.64;3.86;;;;;;;9.37;68.61;101352.57;356258;148;864252;-58
2021/09/29 04:36:04;;;;;;;9.12;5.38;;;;;;;9.32;68.72;101353.35;356153;147;863630;-59
2021/09/29 04:37:05;;;;;;;5.75;3.95;;;;;;;9.27;68.79;101351.50;356806;147;857222;-58
2021/09/29 04:38:07;;;;;;;7.64;4.19;;;;;;;9.21;68.84;101350.54;358587;147;856162;-58
2021/09/29 04:39:09;;;;;;;8.29;4.85;;;;;;;9.18;69.00;101349.63;357412;147;863703;-58
2021/09/29 04:40:11;;;;;;;9.43;5.10;;;;;;;9.18;69.00;101349.63;357162;147;863668;-59
2021/09/29 04:41:13;;;;;;;7.39;5.28;;;;;;;9.10;69.32;101354.62;356267;147;856275;-58
2021/09/29 04:42:15;;;;;;;11.04;5.96;;;;;;;9.08;69.34;101361.47;351221;150;856043;-59
2021/09/29 04:43:17;;;;;;;9.20;5.50;;;;;;;9.03;69.43;101356.22;356891;147;864037;-58
2021/09/29 04:44:18;;;;;;;8.39;4.83;;;;;;;8.96;69.50;101351.73;356552;147;856068;-59
2021/09/29 04:45:20;;;;;;;9.20;4.70;;;;;;;8.95;69.66;101357.73;360244;147;863687;-59
2021/09/29 04:46:22;;;;;;;7.71;4.44;;;;;;;8.94;69.76;101357.72;357466;147;864051;-58
2021/09/29 04:47:24;;;;;;;8.56;5.28;;;;;;;8.91;69.87;101359.39;350822;150;856220;-59
2021/09/29 04:48:26;;;;;;;12.09;4.66;;;;;;;8.90;69.89;101351.59;356518;147;863987;-58
2021/09/29 04:49:28;;;;;;;7.95;5.48;;;;;;;8.88;70.03;101356.75;357807;147;863932;-57
2021/09/29 04:50:31;;;;;;;8.61;5.31;;;;;;;8.88;70.20;101361.02;358847;147;856507;-57
2021/09/29 04:51:33;;;;;;;7.12;4.21;;;;;;;8.86;70.10;101362.70;356751;147;856657;-59
2021/09/29 04:52:35;;;;;;;6.20;3.38;;;;;;;8.85;70.10;101361.84;357147;147;863730;-59
2021/09/29 04:53:38;;;;;;;6.11;3.62;;;;;;;8.89;70.35;101365.36;358032;147;856553;-58
2021/09/29 04:54:41;;;;;;;6.36;3.88;;;;;;;8.96;70.41;101363.79;356634;147;863583;-58
2021/09/29 04:55:43;;;;;;;5.83;3.26;;;;;;;9.03;70.50;101360.50;357611;147;856142;-57
2021/09/29 04:56:45;;;;;;;8.46;3.91;;;;;;;9.13;70.57;101369.33;357318;147;856190;-56
2021/09/29 04:57:47;;;;;;;6.11;3.59;;;;;;;9.20;70.21;101366.89;357537;147;856161;-57
2021/09/29 04:58:48;;;;;;;5.79;3.70;;;;;;;9.29;70.11;101363.63;357655;147;856727;-56
2021/09/29 04:59:50;;;;;;;5.35;3.43;;;;;;;9.39;69.75;101366.40;356588;147;863692;-57
2021/09/29 05:00:53;;;;;;;5.56;3.54;;;;;;;9.46;69.40;101365.67;355495;147;856665;-57
2021/09/29 05:01:55;;;;;;;6.29;3.89;;;;;;;9.54;69.12;101371.86;356694;147;863646;-57
2021/09/29 05:02:57;;;;;;;7.86;4.41;;;;;;;9.60;69.01;101371.98;356003;147;856603;-57
2021/09/29 05:03:58;;;;;;;9.94;6.00;;;;;;;9.63;68.67;101371.19;356331;147;863639;-59
2021/09/29 05:05:00;;;;;;;8.98;4.64;;;;;;;9.61;68.01;101365.97;355194;149;864194;-58
2021/09/29 05:06:02;;;;;;;7.47;4.76;;;;;;;9.61;68.01;101365.97;350814;149;863618;-58
2021/09/29 05:07:04;;;;;;;10.93;6.32;;;;;;;9.60;68.29;101371.12;350674;148;864229;-58
2021/09/29 05:08:07;;;;;;;10.93;5.90;;;;;;;9.57;68.00;101377.09;351575;150;856876;-58
2021/09/29 05:09:09;;;;;;;10.87;6.50;;;;;;;9.54;68.22;101373.56;351953;150;856604;-58
2021/09/29 05:10:31;;;;;;;11.49;6.62;;;;;;;9.50;68.14;101377.82;351675;148;864037;-58
2021/09/29 05:11:34;;;;;;;11.79;7.65;;;;;;;9.45;68.08;101376.86;350732;150;856686;-58
2021/09/29 05:12:36;;;;;;;11.22;6.71;;;;;;;9.39;68.15;101382.77;351594;150;856316;-58
2021/09/29 05:13:38;;;;;;;8.11;5.78;;;;;;;9.37;68.27;101381.00;353469;148;856204;-58
2021/09/29 05:14:40;;;;;;;9.06;6.28;;;;;;;9.33;68.32;101382.64;351250;148;863761;-58
2021/09/29 05:15:41;;;;;;;14.79;8.07;;;;;;;9.30;68.43;101383.47;350080;150;864487;-58
2021/09/29 05:16:47;;;;;;;12.41;7.28;;;;;;;9.27;68.53;101379.94;353090;150;863740;-58
2021/09/29 05:17:48;;;;;;;10.99;7.35;;;;;;;9.25;68.57;101379.92;353181;148;856116;-58
2021/09/29 05:18:49;;;;;;;12.11;6.61;;;;;;;9.25;68.65;101384.20;352255;148;864034;-58
2021/09/29 05:19:51;;;;;;;8.91;6.11;;;;;;;9.24;68.59;101382.45;351445;150;863917;-58
2021/09/29 05:20:54;;;;;;;10.46;5.74;;;;;;;9.24;68.59;101382.45;352061;150;864419;-59
2021/09/29 05:21:56;;;;;;;10.43;6.07;;;;;;;9.21;68.69;101381.55;353213;150;856186;-58
2021/09/29 05:22:58;;;;;;;12.61;6.82;;;;;;;9.20;68.72;101381.53;354452;152;855927;-59
2021/09/29 05:23:59;;;;;;;13.46;7.06;;;;;;;9.18;68.82;101384.07;354603;149;863816;-58
2021/09/29 05:25:01;;;;;;;13.61;6.89;;;;;;;9.17;68.86;101387.50;353047;150;863802;-58
2021/09/29 05:26:03;;;;;;;13.06;6.29;;;;;;;9.17;68.86;101387.50;350403;150;863694;-56
2021/09/29 05:27:05;;;;;;;10.17;6.70;;;;;;;9.15;68.90;101381.42;345217;153;863727;-58
2021/09/29 05:28:07;;;;;;;7.51;5.09;;;;;;;9.15;69.07;101396.08;344505;153;865081;-58
2021/09/29 05:29:10;;;;;;;8.33;5.41;;;;;;;9.13;69.14;101390.86;345486;152;863850;-58
2021/09/29 05:30:14;;;;;;;7.68;4.86;;;;;;;9.14;69.39;101396.91;345667;152;864396;-58
2021/09/29 05:31:16;;;;;;;5.75;4.93;;;;;;;9.14;69.47;101394.33;344103;152;863758;-58
2021/09/29 05:32:18;;;;;;;10.86;5.41;;;;;;;9.12;69.72;101398.59;345075;151;856390;-57
2021/09/29 05:33:20;;;;;;;7.68;4.64;;;;;;;9.09;69.71;101395.94;345106;152;856329;-57
2021/09/29 05:34:24;;;;;;;4.82;3.81;;;;;;;9.06;69.55;101392.45;347607;155;863775;-57
2021/09/29 05:35:25;;;;;;;6.03;4.42;;;;;;;9.06;69.47;101389.87;344532;151;856788;-57
2021/09/29 05:36:27;;;;;;;9.54;5.27;;;;;;;9.06;69.59;101395.04;342812;151;863832;-58
2021/09/29 05:37:29;;;;;;;9.43;5.78;;;;;;;9.07;69.69;101390.72;339938;156;856891;-57
2021/09/29 05:38:31;;;;;;;7.36;4.41;;;;;;;9.09;69.75;101395.94;345743;152;863803;-58
2021/09/29 05:39:33;;;;;;;9.10;6.24;;;;;;;9.09;69.82;101395.94;344537;151;856083;-58
2021/09/29 05:40:35;;;;;;;10.59;7.36;;;;;;;9.09;69.82;101395.94;344187;152;864381;-58
2021/09/29 05:41:37;;;;;;;12.32;5.51;;;;;;;9.11;69.59;101402.87;346679;155;855943;-57
2021/09/29 05:42:38;;;;;;;8.99;7.19;;;;;;;9.09;69.49;101391.63;344196;152;865485;-59
2021/09/29 05:43:40;;;;;;;8.33;6.23;;;;;;;9.10;69.44;101397.69;339866;154;864296;-58